| time (UTC) | temp C | wind direction | speed KPH | gust KPH | rain 1hr cm | rain 24hr cm | rain mn cm | humidity % | barometer mb |
| 20260509123023 | 17 | 97 | 6.4 | 14.5 | 0.00 | 0.00 | 0.00 | 55 | 1016.5 |
| 20260509121534 | 16 | 9 | 4.8 | 16.1 | 0.00 | 0.00 | 0.00 | 56 | 1016.6 |
| 20260509120021 | 16 | 65 | 4.8 | 16.1 | 0.00 | 0.00 | 0.00 | 59 | 1016.8 |
| 20260509114540 | 15 | 25 | 8.0 | 16.1 | 0.00 | 0.00 | 0.00 | 58 | 1017.0 |
| 20260509113019 | 16 | 15 | 6.4 | 16.1 | 0.00 | 0.00 | 0.00 | 58 | 1017.1 |
| 20260509111517 | 17 | 38 | 3.2 | 9.7 | 0.00 | 0.00 | 0.00 | 54 | 1017.3 |
| 20260509110016 | 16 | 95 | 6.4 | 12.9 | 0.00 | 0.00 | 0.00 | 57 | 1017.4 |
| 20260509104515 | 16 | 90 | 6.4 | 14.5 | 0.00 | 0.00 | 0.00 | 56 | 1017.5 |
| 20260509103009 | 15 | 31 | 4.8 | 9.7 | 0.00 | 0.00 | 0.00 | 55 | 1017.7 |
| 20260509101510 | 15 | 43 | 4.8 | 14.5 | 0.00 | 0.00 | 0.00 | 56 | 1017.7 |
| 20260509100007 | 15 | 37 | 4.8 | 14.5 | 0.00 | 0.00 | 0.00 | 58 | 1017.8 |
| 20260509094506 | 15 | 75 | 6.4 | 14.5 | 0.00 | 0.00 | 0.00 | 55 | 1017.8 |
| 20260509093006 | 15 | 326 | 1.6 | 9.7 | 0.00 | 0.00 | 0.00 | 56 | 1017.8 |
| 20260509091506 | 15 | 28 | 4.8 | 12.9 | 0.00 | 0.00 | 0.00 | 50 | 1017.9 |
| 20260509090006 | 15 | 188 | 1.6 | 8.0 | 0.00 | 0.00 | 0.00 | 56 | 1017.9 |
| 20260509084605 | 15 | 88 | 4.8 | 11.3 | 0.00 | 0.00 | 0.00 | 58 | 1017.9 |
| 20260509083059 | 15 | 44 | 3.2 | 11.3 | 0.00 | 0.00 | 0.00 | 58 | 1018.1 |
| 20260509081559 | 15 | 30 | 1.6 | 9.7 | 0.00 | 0.00 | 0.00 | 57 | 1018.1 |
| 20260509080110 | 14 | 184 | 0.0 | 8.0 | 0.00 | 0.00 | 0.00 | 61 | 1018.2 |
| 20260509074555 | 14 | 90 | 1.6 | 6.4 | 0.00 | 0.00 | 0.00 | 59 | 1018.2 |
| 20260509073107 | 14 | 76 | 1.6 | 11.3 | 0.00 | 0.00 | 0.00 | 62 | 1018.1 |
| 20260509071553 | 14 | 110 | 1.6 | 6.4 | 0.00 | 0.00 | 0.00 | 62 | 1018.2 |
| 20260509070055 | 13 | 194 | 1.6 | 3.2 | 0.00 | 0.00 | 0.00 | 69 | 1018.1 |
| 20260509064544 | 12 | 194 | 0.0 | 4.8 | 0.00 | 0.00 | 0.00 | 72 | 1018.0 |
| 20260509063047 | 11 | 44 | 0.0 | 0.0 | 0.00 | 0.00 | 0.00 | 77 | 1018.1 |
| 20260509061539 | 10 | 44 | 0.0 | 0.0 | 0.00 | 0.00 | 0.00 | 80 | 1018.0 |
| 20260509060036 | 8 | 44 | 0.0 | 0.0 | 0.00 | 0.00 | 0.00 | 82 | 1018.1 |
| 20260509054532 | 7 | 44 | 0.0 | 0.0 | 0.00 | 0.00 | 0.00 | 85 | 1018.1 |
| 20260509053040 | 6 | 44 | 0.0 | 0.0 | 0.00 | 0.00 | 0.00 | 90 | 1018.1 |
| 20260509051531 | 5 | 44 | 0.0 | 0.0 | 0.00 | 0.00 | 0.00 | 91 | 1018.0 |
| 20260509050046 | 4 | 44 | 0.0 | 0.0 | 0.00 | 0.00 | 0.00 | 90 | 1017.9 |
| 20260509044531 | 4 | 44 | 0.0 | 0.0 | 0.00 | 0.00 | 0.00 | 90 | 1017.8 |
| 20260509043036 | 4 | 44 | 0.0 | 0.0 | 0.00 | 0.00 | 0.00 | 89 | 1017.7 |
| 20260509041528 | 4 | 44 | 0.0 | 0.0 | 0.00 | 0.00 | 0.00 | 90 | 1017.7 |
| 20260509040027 | 4 | 44 | 0.0 | 0.0 | 0.00 | 0.00 | 0.00 | 90 | 1017.5 |
| 20260509034526 | 4 | 44 | 0.0 | 0.0 | 0.00 | 0.00 | 0.00 | 90 | 1017.6 |
| 20260509033035 | 4 | 44 | 0.0 | 0.0 | 0.00 | 0.00 | 0.00 | 89 | 1017.6 |
| 20260509031528 | 4 | 44 | 0.0 | 0.0 | 0.00 | 0.00 | 0.00 | 89 | 1017.8 |
| 20260509030025 | 4 | 44 | 0.0 | 0.0 | 0.00 | 0.00 | 0.00 | 89 | 1017.9 |
| 20260509024526 | 4 | 44 | 0.0 | 0.0 | 0.00 | 0.00 | 0.00 | 89 | 1017.9 |
| 20260509023024 | 4 | 44 | 0.0 | 0.0 | 0.00 | 0.00 | 0.00 | 90 | 1017.9 |
| 20260509021519 | 4 | 44 | 0.0 | 0.0 | 0.00 | 0.00 | 0.00 | 89 | 1018.0 |
| 20260509020020 | 4 | 44 | 0.0 | 0.0 | 0.00 | 0.00 | 0.00 | 87 | 1018.1 |
| 20260509014517 | 5 | 44 | 0.0 | 1.6 | 0.00 | 0.00 | 0.00 | 88 | 1018.1 |
| 20260509013016 | 5 | 44 | 0.0 | 0.0 | 0.00 | 0.00 | 0.00 | 88 | 1018.1 |
| 20260509011514 | 5 | 44 | 0.0 | 0.0 | 0.00 | 0.00 | 0.00 | 87 | 1018.2 |
| 20260509010014 | 5 | 44 | 0.0 | 0.0 | 0.00 | 0.00 | 0.00 | 86 | 1018.2 |
| 20260509004511 | 5 | 44 | 0.0 | 1.6 | 0.00 | 0.00 | 0.00 | 87 | 1018.2 |
| 20260509003010 | 5 | 44 | 0.0 | 0.0 | 0.00 | 0.00 | 0.00 | 86 | 1018.2 |
| 20260509001508 | 5 | 44 | 0.0 | 0.0 | 0.00 | 0.00 | 0.00 | 85 | 1018.2 |
| 20260509000005 | 6 | 44 | 0.0 | 1.6 | 0.00 | 0.00 | 0.00 | 84 | 1018.3 |
| 20260508234504 | 6 | 44 | 0.0 | 0.0 | 0.00 | 0.00 | 0.00 | 84 | 1018.4 |
| 20260508233004 | 6 | 44 | 0.0 | 0.0 | 0.00 | 0.00 | 0.00 | 83 | 1018.5 |
| 20260508231503 | 6 | 44 | 0.0 | 0.0 | 0.00 | 0.00 | 0.00 | 83 | 1018.4 |
| 20260508230004 | 6 | 44 | 0.0 | 0.0 | 0.00 | 0.00 | 0.00 | 82 | 1018.4 |
| 20260508224613 | 6 | 44 | 0.0 | 0.0 | 0.00 | 0.00 | 0.00 | 82 | 1018.4 |
| 20260508223058 | 7 | 44 | 0.0 | 0.0 | 0.00 | 0.00 | 0.00 | 80 | 1018.3 |
| 20260508221609 | 7 | 44 | 0.0 | 3.2 | 0.00 | 0.00 | 0.00 | 81 | 1018.2 |
| 20260508220054 | 7 | 44 | 0.0 | 1.6 | 0.00 | 0.00 | 0.00 | 80 | 1018.2 |
| 20260508214554 | 7 | 44 | 0.0 | 0.0 | 0.00 | 0.00 | 0.00 | 78 | 1018.3 |
| 20260508213053 | 8 | 44 | 0.0 | 0.0 | 0.00 | 0.00 | 0.00 | 76 | 1018.3 |
| 20260508211554 | 8 | 44 | 0.0 | 3.2 | 0.00 | 0.00 | 0.00 | 75 | 1018.3 |
| 20260508210052 | 8 | 44 | 0.0 | 3.2 | 0.00 | 0.00 | 0.00 | 74 | 1018.2 |
| 20260508204551 | 9 | 44 | 0.0 | 3.2 | 0.00 | 0.00 | 0.00 | 72 | 1018.2 |
| 20260508203054 | 9 | 44 | 0.0 | 3.2 | 0.00 | 0.00 | 0.00 | 72 | 1018.2 |
| 20260508201550 | 10 | 44 | 0.0 | 3.2 | 0.00 | 0.00 | 0.00 | 72 | 1018.2 |
| 20260508200100 | 10 | 44 | 0.0 | 6.4 | 0.00 | 0.00 | 0.00 | 71 | 1018.1 |
| 20260508194547 | 10 | 44 | 0.0 | 6.4 | 0.00 | 0.00 | 0.00 | 69 | 1018.0 |
| 20260508193057 | 10 | 44 | 0.0 | 6.4 | 0.00 | 0.00 | 0.00 | 67 | 1017.9 |
| 20260508191544 | 11 | 66 | 1.6 | 6.4 | 0.00 | 0.00 | 0.00 | 66 | 1017.6 |
| 20260508190043 | 11 | 66 | 1.6 | 6.4 | 0.00 | 0.00 | 0.00 | 65 | 1017.3 |
| 20260508184542 | 11 | 66 | 0.0 | 6.4 | 0.00 | 0.00 | 0.00 | 64 | 1017.3 |
| 20260508183058 | 12 | 57 | 0.0 | 8.0 | 0.00 | 0.00 | 0.00 | 63 | 1017.1 |
| 20260508181550 | 12 | 45 | 0.0 | 6.4 | 0.00 | 0.00 | 0.00 | 61 | 1017.0 |
| 20260508180037 | -17 | 0.0 | 0.0 | 0.00 | 0.00 | 0.00 | 1016.8 | ||
| 20260508174534 | 13 | 77 | 1.6 | 12.9 | 0.00 | 0.00 | 0.00 | 60 | 1016.8 |
| 20260508173036 | 13 | 71 | 1.6 | 8.0 | 0.00 | 0.00 | 0.00 | 59 | 1016.8 |
| 20260508171536 | 13 | 40 | 4.8 | 9.7 | 0.00 | 0.00 | 0.00 | 58 | 1016.7 |
| 20260508170031 | 13 | 112 | 3.2 | 12.9 | 0.00 | 0.00 | 0.00 | 57 | 1016.6 |
| 20260508164532 | 13 | 35 | 4.8 | 9.7 | 0.00 | 0.00 | 0.00 | 57 | 1016.6 |
| 20260508163030 | 13 | 67 | 4.8 | 14.5 | 0.00 | 0.00 | 0.00 | 58 | 1016.6 |
| 20260508161536 | 13 | 26 | 4.8 | 17.7 | 0.00 | 0.00 | 0.00 | 56 | 1016.6 |
| 20260508160034 | 13 | 35 | 3.2 | 16.1 | 0.00 | 0.00 | 0.00 | 55 | 1016.7 |
| 20260508154528 | 13 | 68 | 4.8 | 9.7 | 0.00 | 0.00 | 0.00 | 55 | 1016.8 |
| 20260508153027 | 14 | 111 | 3.2 | 16.1 | 0.00 | 0.00 | 0.00 | 55 | 1016.7 |
| 20260508151525 | 13 | 21 | 3.2 | 16.1 | 0.00 | 0.00 | 0.00 | 54 | 1016.9 |
| 20260508150026 | 13 | 51 | 8.0 | 16.1 | 0.00 | 0.00 | 0.00 | 56 | 1017.0 |
| 20260508144536 | 13 | 25 | 4.8 | 11.3 | 0.00 | 0.00 | 0.00 | 56 | 1017.1 |
| 20260508143029 | 13 | 49 | 4.8 | 17.7 | 0.00 | 0.00 | 0.00 | 57 | 1017.1 |
| 20260508141524 | 13 | 11 | 4.8 | 9.7 | 0.00 | 0.00 | 0.00 | 56 | 1017.2 |
| 20260508140019 | 13 | 5 | 3.2 | 11.3 | 0.00 | 0.00 | 0.00 | 55 | 1017.4 |
| 20260508134516 | 13 | 33 | 3.2 | 12.9 | 0.00 | 0.00 | 0.00 | 58 | 1017.3 |
| 20260508133015 | 13 | 42 | 4.8 | 11.3 | 0.00 | 0.00 | 0.00 | 58 | 1017.4 |
| 20260508131515 | 12 | 11 | 6.4 | 14.5 | 0.00 | 0.00 | 0.00 | 61 | 1017.4 |
| 20260508130017 | 12 | 34 | 6.4 | 16.1 | 0.00 | 0.00 | 0.00 | 63 | 1017.4 |
| 20260508124513 | 12 | 89 | 3.2 | 12.9 | 0.00 | 0.00 | 0.00 | 65 | 1017.4 |